Arbuckle, WV

7:22 PM EST on January 25, 2015 (GMT -0500)
Capehart | Change Station
CLOSE
Current Station
Personal Weather Station
Location: Leon, WV
Elevation: 735 ft
Nearby Weather Stations

Elev 735 ft 38.71 °N, 81.88 °W | Updated 28 seconds ago

Mostly Cloudy
Mostly Cloudy
40.8 °F
Feels Like 41 °F
N
0.0
Wind Variable Wind from North
Gusts 0.0 mph

Today
High -- | Low -- °F
--% Chance of Precip.
Yesterday
High -- | Low -- °F
Precip. -- in
7:39 AM 5:41 PM
Waxing Crescent, 37% visible
Pressure 29.74 in
Visibility 7.0 miles
Clouds Mostly Cloudy 4600 ft
Mostly Cloudy 5500 ft
Windchill 41 °F
Dew Point 35 °F
Humidity 81%
Rainfall 0.20 in
Snow Depth Not available.
UV 0 out of 12
Pollen .10 out of 12
Air Quality Not available.
Flu Activity Not available.
METAR K3I2 260015Z AUTO 00000KT 7SM BKN046 BKN055 03/02 A2974 RMK AO2

More Conditions Fewer Conditions

Pressure 29.74 in
Visibility 7.0 miles
Clouds Mostly Cloudy 4600 ft
Mostly Cloudy 5500 ft
Windchill 41 °F
Dew Point 35 °F
Humidity 81%
Rainfall 0.20 in
Snow Depth Not available.
UV 0 out of 12
Pollen .10 out of 12
Air Quality Not available.
Flu Activity Not available.
METAR K3I2 260015Z AUTO 00000KT 7SM BKN046 BKN055 03/02 A2974 RMK AO2

More Conditions Fewer Conditions

10-Day Weather Forecast

Almanac

Astronomy

Jan. 25, 2015 Rise Set
Actual Time
Civil Twilight
Nautical Twilight
Astronomical Twilight
Moon
Length of Visible Light
Length of Day
Tomorrow will be .
, % of the Moon is Illuminated

Today's Extremes

State Highs State Lows

Community

WunderPhotos

Upload Photos

1,790,013 photos uploaded!

WunderBlogs® & News

Nearby

Air Quality

  Air Quality AQ Index Pollutant
Not available.

Snow Depth

Station Depth Elevation

Earthquake Activity

City Distance Mag. Time & Date
Minimum magnitude displayed is 2.5.

Coastal Water Temperatures

Place Temperature

Nearby Weather Stations